createdAt,value
2023-01-13T00:01:18.904Z,11.67
2023-01-13T00:04:21.703Z,11.64
2023-01-13T00:07:25.829Z,11.66
2023-01-13T00:10:28.628Z,11.50
2023-01-13T00:13:33.656Z,11.56
2023-01-13T00:16:36.410Z,11.57
2023-01-13T00:19:39.637Z,11.57
2023-01-13T00:22:44.060Z,11.47
2023-01-13T00:25:46.719Z,11.46
2023-01-13T00:28:49.724Z,11.39
2023-01-13T00:31:52.696Z,11.50
2023-01-13T00:34:56.477Z,11.49
2023-01-13T00:38:00.453Z,11.46
2023-01-13T00:41:05.981Z,11.45
2023-01-13T00:44:07.851Z,11.28
2023-01-13T00:47:11.314Z,11.35
2023-01-13T00:50:14.128Z,11.37
2023-01-13T00:53:18.818Z,11.31
2023-01-13T00:56:40.778Z,11.24
2023-01-13T00:59:44.383Z,11.34
2023-01-13T01:02:47.308Z,11.34
2023-01-13T01:05:50.044Z,11.46
2023-01-13T01:08:55.002Z,11.44
2023-01-13T01:11:57.977Z,11.66
2023-01-13T01:15:00.795Z,11.76
2023-01-13T01:18:03.730Z,11.66
2023-01-13T01:21:07.168Z,11.86
2023-01-13T01:24:11.876Z,11.87
2023-01-13T01:27:14.591Z,11.86
2023-01-13T01:30:17.428Z,11.94
2023-01-13T01:33:20.181Z,11.96
2023-01-13T01:36:26.345Z,11.82
2023-01-13T01:39:30.416Z,11.85
2023-01-13T01:42:51.095Z,11.94
2023-01-13T01:45:53.856Z,11.99
2023-01-13T01:48:59.996Z,11.85
2023-01-13T01:52:05.497Z,11.87
2023-01-13T01:55:12.054Z,11.86
2023-01-13T01:58:17.340Z,11.86
2023-01-13T02:01:20.238Z,11.77
2023-01-13T02:04:27.225Z,11.86
2023-01-13T02:07:32.354Z,11.75
2023-01-13T02:10:37.330Z,11.88
2023-01-13T02:13:40.062Z,11.92
2023-01-13T02:16:47.420Z,11.72
2023-01-13T02:20:14.821Z,11.95
2023-01-13T02:24:11.206Z,11.89
2023-01-13T02:27:41.428Z,11.88
2023-01-13T02:31:06.493Z,11.80
2023-01-13T02:34:13.014Z,11.82
2023-01-13T02:37:18.357Z,11.80
2023-01-13T02:40:23.881Z,11.66
2023-01-13T02:43:43.433Z,11.77
2023-01-13T02:46:51.892Z,11.87
2023-01-13T02:49:57.328Z,11.85
2023-01-13T02:53:02.489Z,11.79
2023-01-13T02:56:06.953Z,11.80
2023-01-13T02:59:12.831Z,11.83
2023-01-13T03:02:20.405Z,11.85
2023-01-13T03:05:23.386Z,11.67
2023-01-13T03:08:39.383Z,11.54
2023-01-13T03:11:49.738Z,11.55
2023-01-13T03:14:57.747Z,11.76
2023-01-13T03:18:07.573Z,11.69
2023-01-13T03:21:15.703Z,11.63
2023-01-13T03:24:20.928Z,11.78
2023-01-13T03:27:28.008Z,11.82
2023-01-13T03:30:35.827Z,11.75
2023-01-13T03:33:45.617Z,11.74
2023-01-13T03:36:50.805Z,11.65
2023-01-13T03:39:56.542Z,11.67
2023-01-13T03:43:19.927Z,11.48
2023-01-13T03:46:28.179Z,11.43
2023-01-13T03:49:37.072Z,11.50
2023-01-13T03:52:42.681Z,11.40
2023-01-13T03:55:48.290Z,11.50
2023-01-13T03:58:52.094Z,11.45
2023-01-13T04:02:01.241Z,11.39
2023-01-13T04:05:08.804Z,11.32
2023-01-13T04:08:18.972Z,11.37
2023-01-13T04:11:26.963Z,11.25
2023-01-13T04:14:30.638Z,11.21
2023-01-13T04:17:33.141Z,11.19
2023-01-13T04:20:37.290Z,11.13
2023-01-13T04:23:39.828Z,11.16
2023-01-13T04:26:42.729Z,11.20
2023-01-13T04:29:45.518Z,11.31
2023-01-13T04:32:48.211Z,11.40
2023-01-13T04:35:53.727Z,11.40
2023-01-13T04:38:56.947Z,11.51
2023-01-13T04:41:59.906Z,11.60
2023-01-13T04:45:02.576Z,11.66
2023-01-13T04:48:05.724Z,11.76
2023-01-13T04:51:09.793Z,11.61
2023-01-13T04:54:12.843Z,11.65
2023-01-13T04:57:15.454Z,11.66
2023-01-13T05:00:19.952Z,11.78
2023-01-13T05:03:24.463Z,11.91
2023-01-13T05:06:28.467Z,11.95
2023-01-13T05:09:31.195Z,11.75
2023-01-13T05:12:51.499Z,11.90
2023-01-13T05:16:17.280Z,11.93
2023-01-13T05:19:19.855Z,11.99
2023-01-13T05:22:41.413Z,12.04
2023-01-13T05:25:44.801Z,11.88
2023-01-13T05:28:47.495Z,12.04
2023-01-13T05:31:50.291Z,12.05
2023-01-13T05:34:53.025Z,11.97
2023-01-13T05:37:57.332Z,12.07
2023-01-13T05:41:18.069Z,12.07
2023-01-13T05:44:20.715Z,12.02
2023-01-13T05:47:23.370Z,11.81
2023-01-13T05:50:26.313Z,11.68
2023-01-13T05:53:30.306Z,11.63
2023-01-13T05:56:33.749Z,11.61
2023-01-13T05:59:36.409Z,11.40
2023-01-13T06:02:39.200Z,11.29
2023-01-13T06:05:41.988Z,11.23
2023-01-13T06:08:46.186Z,11.28
2023-01-13T06:11:48.858Z,11.51
2023-01-13T06:14:52.114Z,11.59
2023-01-13T06:17:56.612Z,11.61
2023-01-13T06:20:59.502Z,11.57
2023-01-13T06:24:03.678Z,11.65
2023-01-13T06:27:07.658Z,11.69
2023-01-13T06:30:11.863Z,11.58
2023-01-13T06:33:16.315Z,11.61
2023-01-13T06:36:24.923Z,11.51
2023-01-13T06:39:31.210Z,11.72
2023-01-13T06:42:53.593Z,11.96
2023-01-13T06:45:57.386Z,12.04
2023-01-13T06:49:00.219Z,11.69
2023-01-13T06:52:03.222Z,11.43
2023-01-13T06:55:08.053Z,11.47
2023-01-13T06:58:10.844Z,11.35
2023-01-13T07:01:13.527Z,11.60
2023-01-13T07:04:16.580Z,11.50
2023-01-13T07:07:19.470Z,11.43
2023-01-13T07:10:23.402Z,11.32
2023-01-13T07:13:43.959Z,11.36
2023-01-13T07:16:46.876Z,11.15
2023-01-13T07:19:49.623Z,11.24
2023-01-13T07:22:54.826Z,11.30
2023-01-13T07:25:59.758Z,11.12
2023-01-13T07:29:02.419Z,11.23
2023-01-13T07:32:07.014Z,11.28
2023-01-13T07:35:09.939Z,11.33
2023-01-13T07:38:12.562Z,11.36
2023-01-13T07:41:34.570Z,11.68
2023-01-13T07:44:37.352Z,11.74
2023-01-13T07:47:40.240Z,11.61
2023-01-13T07:50:44.169Z,11.44
2023-01-13T07:53:46.981Z,11.66
2023-01-13T07:56:53.838Z,11.78
2023-01-13T07:59:56.470Z,11.96
2023-01-13T08:03:01.140Z,12.03
2023-01-13T08:06:04.159Z,12.23
2023-01-13T08:09:06.713Z,12.30
2023-01-13T08:12:28.295Z,12.39
2023-01-13T08:15:32.384Z,12.53
2023-01-13T08:18:35.979Z,12.20
2023-01-13T08:21:38.523Z,12.14
2023-01-13T08:24:41.069Z,12.23
2023-01-13T08:27:44.872Z,12.55
2023-01-13T08:30:47.717Z,12.27
2023-01-13T08:33:50.398Z,12.12
2023-01-13T08:36:52.992Z,11.68
2023-01-13T08:39:55.698Z,11.24
2023-01-13T08:43:00.504Z,10.80
2023-01-13T08:46:04.649Z,10.62
2023-01-13T08:49:07.554Z,10.61
2023-01-13T08:52:10.735Z,10.70
2023-01-13T08:55:13.449Z,10.84
2023-01-13T08:58:17.431Z,10.91
2023-01-13T09:01:23.242Z,10.84
2023-01-13T09:04:28.432Z,10.80
2023-01-13T09:07:31.103Z,10.65
2023-01-13T09:10:35.688Z,10.56
2023-01-13T09:13:39.732Z,10.42
2023-01-13T09:16:42.440Z,9.86
2023-01-13T09:19:45.825Z,9.40
2023-01-13T09:22:48.437Z,9.23
2023-01-13T09:25:51.114Z,9.28
2023-01-13T09:28:55.744Z,9.20
2023-01-13T09:31:58.832Z,9.43
2023-01-13T09:35:00.686Z,9.59
2023-01-13T09:38:03.432Z,10.00
2023-01-13T09:41:27.016Z,10.44
2023-01-13T09:44:48.440Z,10.61
2023-01-13T09:47:56.524Z,11.10
2023-01-13T09:51:03.804Z,11.32
2023-01-13T09:54:13.173Z,11.44
2023-01-13T09:57:17.360Z,11.17
2023-01-13T10:00:24.092Z,11.08
2023-01-13T10:03:27.743Z,11.09
2023-01-13T10:06:31.597Z,11.48
2023-01-13T10:09:43.607Z,11.10
2023-01-13T10:13:04.146Z,10.69
2023-01-13T10:16:25.430Z,10.96
2023-01-13T10:19:31.252Z,10.96
2023-01-13T10:22:46.727Z,10.52
2023-01-13T10:25:56.372Z,10.48
2023-01-13T10:28:59.311Z,10.93
2023-01-13T10:32:03.222Z,11.12
2023-01-13T10:35:06.483Z,11.26
2023-01-13T10:38:17.059Z,11.18
2023-01-13T10:41:24.592Z,11.33
2023-01-13T10:44:27.252Z,11.52
2023-01-13T10:47:32.954Z,11.32
2023-01-13T10:50:36.509Z,11.54
2023-01-13T10:53:47.103Z,11.54
2023-01-13T10:56:50.413Z,11.17
2023-01-13T10:59:53.389Z,11.03
2023-01-13T11:03:17.757Z,10.55
2023-01-13T11:06:23.058Z,10.13
2023-01-13T11:09:27.089Z,10.16
2023-01-13T11:12:32.313Z,10.16
2023-01-13T11:15:41.008Z,10.05
2023-01-13T11:19:02.404Z,9.53
2023-01-13T11:22:07.018Z,9.67
2023-01-13T11:25:13.816Z,9.86
2023-01-13T11:28:39.477Z,9.55
2023-01-13T11:31:45.414Z,9.65
2023-01-13T11:34:52.599Z,9.68
2023-01-13T11:38:01.961Z,9.36
2023-01-13T11:41:10.239Z,9.27
2023-01-13T11:44:18.353Z,9.26
2023-01-13T11:47:24.219Z,9.38
2023-01-13T11:50:33.878Z,9.48
2023-01-13T11:53:48.897Z,9.84
2023-01-13T11:57:19.614Z,10.27
2023-01-13T12:00:33.924Z,10.37
2023-01-13T12:03:40.036Z,10.15
2023-01-13T12:06:46.033Z,9.92
2023-01-13T12:10:03.825Z,9.88
2023-01-13T12:13:13.381Z,10.06
2023-01-13T12:16:23.503Z,10.25
2023-01-13T12:19:27.980Z,10.28
2023-01-13T12:22:35.334Z,10.64
2023-01-13T12:25:41.901Z,10.65
2023-01-13T12:28:49.073Z,11.00
2023-01-13T12:31:52.291Z,10.73
2023-01-13T12:35:06.718Z,11.17
2023-01-13T12:38:13.104Z,10.93
2023-01-13T12:41:26.933Z,10.68
2023-01-13T12:44:28.676Z,11.65
2023-01-13T12:47:35.380Z,11.81
2023-01-13T12:50:42.457Z,11.44
2023-01-13T12:53:46.515Z,10.91
2023-01-13T12:56:49.130Z,10.27
2023-01-13T13:00:18.642Z,10.60
2023-01-13T13:03:33.199Z,10.53
2023-01-13T13:06:37.323Z,10.76
2023-01-13T13:09:44.769Z,11.30
2023-01-13T13:13:15.301Z,15.56
2023-01-13T13:16:46.743Z,16.05
2023-01-13T13:19:50.176Z,16.91
2023-01-13T13:22:52.984Z,19.16
2023-01-13T13:26:07.500Z,22.39
2023-01-13T13:29:22.781Z,19.36
2023-01-13T13:32:52.840Z,20.69
2023-01-13T13:36:06.865Z,19.47
2023-01-13T13:39:38.889Z,19.48
2023-01-13T13:43:04.492Z,18.88
2023-01-13T13:47:04.469Z,21.67
2023-01-13T13:50:09.720Z,15.09
2023-01-13T13:53:12.651Z,14.06
2023-01-13T13:56:18.969Z,13.07
2023-01-13T13:59:25.385Z,12.79
2023-01-13T14:02:30.878Z,11.57
2023-01-13T14:05:34.891Z,10.92
2023-01-13T14:08:39.033Z,10.27
2023-01-13T14:11:42.219Z,9.97
2023-01-13T14:14:46.693Z,9.25
2023-01-13T14:17:49.848Z,8.59
2023-01-13T14:20:57.254Z,8.40
2023-01-13T14:24:05.779Z,8.55
2023-01-13T14:27:10.035Z,8.41
2023-01-13T14:30:19.192Z,8.38
2023-01-13T14:33:31.096Z,8.23
2023-01-13T14:36:38.198Z,7.97
2023-01-13T14:39:42.304Z,7.83
2023-01-13T14:42:45.527Z,7.88
2023-01-13T14:45:58.119Z,8.09
2023-01-13T14:49:02.089Z,8.21
2023-01-13T14:52:07.010Z,8.05
2023-01-13T14:55:23.663Z,7.88
2023-01-13T14:58:28.442Z,7.87
2023-01-13T15:01:36.497Z,7.84
2023-01-13T15:04:39.283Z,7.91
2023-01-13T15:07:42.783Z,7.94
2023-01-13T15:10:49.034Z,8.04
2023-01-13T15:13:58.069Z,7.99
2023-01-13T15:17:02.924Z,7.92
2023-01-13T15:20:14.846Z,7.96
2023-01-13T15:23:17.777Z,8.07
2023-01-13T15:26:24.571Z,8.18
2023-01-13T15:29:29.110Z,8.19
2023-01-13T15:32:33.383Z,8.01
2023-01-13T15:35:38.163Z,7.85
2023-01-13T15:38:41.136Z,7.83
2023-01-13T15:42:01.516Z,7.75
2023-01-13T15:45:23.090Z,7.73
2023-01-13T15:48:30.999Z,7.63
2023-01-13T15:51:34.017Z,7.59
2023-01-13T15:54:37.109Z,7.44
2023-01-13T15:57:45.171Z,7.30
2023-01-13T16:00:48.051Z,7.34
2023-01-13T16:03:52.951Z,7.27
2023-01-13T16:06:56.674Z,7.34
2023-01-13T16:10:01.696Z,7.39
2023-01-13T16:13:04.989Z,7.35
2023-01-13T16:16:17.696Z,7.38
2023-01-13T16:19:21.981Z,7.41
2023-01-13T16:22:24.638Z,7.51
2023-01-13T16:25:28.387Z,7.42
2023-01-13T16:28:31.466Z,7.20
2023-01-13T16:31:36.090Z,7.11
2023-01-13T16:34:40.199Z,7.01
2023-01-13T16:37:45.151Z,7.03
2023-01-13T16:40:49.115Z,6.77
2023-01-13T16:43:52.684Z,6.80
2023-01-13T16:46:55.431Z,6.78
2023-01-13T16:49:59.800Z,6.61
2023-01-13T16:53:02.439Z,6.60
2023-01-13T16:56:06.689Z,6.55
2023-01-13T16:59:12.146Z,6.67
2023-01-13T17:02:15.709Z,6.80
2023-01-13T17:05:20.154Z,7.03
2023-01-13T17:08:22.758Z,7.07
2023-01-13T17:11:25.407Z,7.07
2023-01-13T17:14:28.158Z,7.14
2023-01-13T17:17:31.504Z,7.30
2023-01-13T17:20:35.657Z,7.45
2023-01-13T17:23:38.355Z,7.64
2023-01-13T17:26:43.932Z,7.93
2023-01-13T17:29:46.932Z,8.20
2023-01-13T17:32:49.601Z,8.28
2023-01-13T17:35:53.530Z,8.23
2023-01-13T17:38:57.198Z,8.43
2023-01-13T17:41:59.729Z,8.53
2023-01-13T17:45:02.605Z,8.49
2023-01-13T17:48:06.012Z,8.52
2023-01-13T17:51:12.750Z,8.50
2023-01-13T17:54:16.216Z,8.38
2023-01-13T17:57:18.937Z,8.42
2023-01-13T18:00:22.274Z,8.39
2023-01-13T18:03:25.208Z,8.37
2023-01-13T18:06:29.731Z,8.49
2023-01-13T18:09:33.202Z,8.58
2023-01-13T18:12:35.893Z,8.49
2023-01-13T18:15:38.682Z,8.30
2023-01-13T18:18:42.688Z,8.16
2023-01-13T18:22:05.225Z,8.11
2023-01-13T18:25:30.038Z,8.03
2023-01-13T18:28:33.153Z,7.94
2023-01-13T18:31:36.274Z,7.73
2023-01-13T18:34:39.648Z,7.62
2023-01-13T18:37:44.660Z,7.54
2023-01-13T18:40:47.225Z,7.58
2023-01-13T18:43:48.820Z,7.63
2023-01-13T18:46:51.658Z,7.57
2023-01-13T18:49:54.218Z,7.56
2023-01-13T18:52:58.664Z,7.51
2023-01-13T18:56:01.400Z,7.57
2023-01-13T18:59:04.354Z,7.56
2023-01-13T19:02:17.884Z,7.45
2023-01-13T19:05:20.902Z,7.49
2023-01-13T19:08:24.952Z,7.48
2023-01-13T19:11:30.224Z,7.45
2023-01-13T19:14:37.672Z,7.13
2023-01-13T19:17:40.556Z,7.22
2023-01-13T19:20:43.754Z,7.16
2023-01-13T19:23:48.213Z,7.15
2023-01-13T19:26:50.836Z,7.06
2023-01-13T19:29:54.406Z,7.12
2023-01-13T19:32:57.456Z,7.14
2023-01-13T19:36:00.930Z,7.12
2023-01-13T19:39:05.162Z,7.41
2023-01-13T19:42:25.675Z,7.35
2023-01-13T19:45:29.591Z,7.31
2023-01-13T19:48:32.714Z,7.27
2023-01-13T19:51:35.598Z,7.18
2023-01-13T19:54:39.542Z,7.37
2023-01-13T19:57:43.572Z,7.53
2023-01-13T20:00:47.546Z,7.61
2023-01-13T20:03:50.507Z,7.63
2023-01-13T20:06:53.489Z,7.70
2023-01-13T20:09:58.212Z,7.90
2023-01-13T20:13:02.117Z,8.07
2023-01-13T20:16:06.251Z,8.14
2023-01-13T20:19:09.402Z,8.04
2023-01-13T20:22:12.601Z,7.56
2023-01-13T20:25:17.464Z,7.37
2023-01-13T20:28:20.431Z,7.28
2023-01-13T20:31:23.366Z,7.34
2023-01-13T20:34:26.661Z,7.43
2023-01-13T20:37:29.597Z,7.41
2023-01-13T20:40:33.511Z,7.40
2023-01-13T20:43:36.330Z,7.36
2023-01-13T20:46:39.494Z,7.61
2023-01-13T20:49:42.447Z,7.63
2023-01-13T20:52:45.636Z,7.51
2023-01-13T20:55:49.721Z,7.34
2023-01-13T20:58:52.450Z,7.22
2023-01-13T21:01:55.253Z,7.09
2023-01-13T21:04:58.119Z,7.20
2023-01-13T21:08:00.920Z,7.42
2023-01-13T21:11:10.414Z,7.63
2023-01-13T21:14:33.115Z,7.43
2023-01-13T21:17:53.244Z,7.14
2023-01-13T21:21:11.628Z,7.13
2023-01-13T21:24:14.636Z,7.14
2023-01-13T21:27:18.939Z,7.12
2023-01-13T21:30:22.759Z,6.91
2023-01-13T21:33:25.433Z,6.68
2023-01-13T21:36:28.652Z,6.63
2023-01-13T21:39:31.371Z,6.60
2023-01-13T21:42:53.342Z,6.55
2023-01-13T21:46:13.776Z,6.65
2023-01-13T21:49:16.783Z,7.08
2023-01-13T21:52:19.422Z,7.27
2023-01-13T21:55:28.231Z,7.06
2023-01-13T21:58:32.271Z,6.87
2023-01-13T22:01:35.037Z,6.67
2023-01-13T22:04:38.789Z,6.49
2023-01-13T22:07:42.118Z,6.47
2023-01-13T22:10:58.714Z,6.53
2023-01-13T22:14:09.371Z,6.52
2023-01-13T22:17:15.054Z,6.40
2023-01-13T22:20:19.290Z,6.26
2023-01-13T22:23:21.973Z,6.32
2023-01-13T22:26:24.882Z,6.39
2023-01-13T22:29:29.119Z,6.37
2023-01-13T22:32:31.728Z,6.18
2023-01-13T22:35:34.382Z,6.10
2023-01-13T22:38:37.172Z,5.99
2023-01-13T22:41:39.828Z,5.92
2023-01-13T22:44:45.037Z,5.93
2023-01-13T22:47:49.678Z,5.91
2023-01-13T22:50:52.706Z,5.83
2023-01-13T22:53:56.367Z,5.83
2023-01-13T22:56:59.763Z,5.87
2023-01-13T23:00:04.638Z,5.73
2023-01-13T23:03:07.501Z,5.53
2023-01-13T23:06:10.596Z,5.52
2023-01-13T23:09:13.572Z,5.67
2023-01-13T23:12:16.594Z,5.78
2023-01-13T23:15:20.869Z,5.89
2023-01-13T23:18:26.546Z,5.88
2023-01-13T23:21:31.735Z,5.88
2023-01-13T23:24:34.775Z,5.86
2023-01-13T23:27:37.617Z,5.77
2023-01-13T23:30:42.011Z,5.85
2023-01-13T23:33:45.318Z,6.01
2023-01-13T23:36:48.129Z,6.17
2023-01-13T23:39:50.801Z,6.27
2023-01-13T23:42:53.375Z,6.15
2023-01-13T23:46:04.142Z,6.25
2023-01-13T23:49:07.018Z,6.19
2023-01-13T23:52:11.650Z,6.06
2023-01-13T23:55:14.338Z,5.91
2023-01-13T23:58:17.159Z,5.94
